This is the latest recevied weather packets stored in our database for station/object W4RJG. If no packets are shown the sender has not sent any weather packets the latest 10 day(s).
| Time | Temp. | Humidity | Pressure | Rain* | Wind** | Luminosity | Snow |
|---|---|---|---|---|---|---|---|
| 1777866005 | 6.67° C | 84% | 1006.1 hPa | 0 mm | - | 0 W/m² | - |
| 1777865405 | 6.67° C | 84% | 1006.1 hPa | 0 mm | - | 0 W/m² | - |
| 1777863005 | 7.78° C | 81% | 1006.1 hPa | 0 mm | - | 0 W/m² | - |
| 1777860007 | 8.89° C | 75% | 1005.8 hPa | 0 mm | - | 0 W/m² | - |
| 1777857005 | 11.11° C | 66% | 1005.4 hPa | 0 mm | - | 0 W/m² | - |
| 1777851005 | 17.22° C | 37% | 1004.4 hPa | 0 mm | - | 0 W/m² | - |
| 1777850407 | 17.78° C | 35% | 1004.4 hPa | 0 mm | - | 0 W/m² | - |
| 1777840824 | 20° C | 30% | 1005.4 hPa | 0 mm | - | 0 W/m² | - |
| 1777827006 | 17.22° C | 32% | 1008.5 hPa | 0 mm | - | 0 W/m² | - |
| 1777819805 | 15° C | 36% | 1009.1 hPa | 0 mm | - | 0 W/m² | - |
| 1777818605 | 14.44° C | 37% | 1009.1 hPa | 0 mm | - | 0 W/m² | - |
| 1777813204 | 9.44° C | 58% | 1009.1 hPa | 0 mm | - | 0 W/m² | - |
| 1777806604 | 1.11° C | 94% | 1007.8 hPa | 0 mm | - | 0 W/m² | - |
| 1777805404 | 1.11° C | 94% | 1007.5 hPa | 0 mm | - | 0 W/m² | - |
| 1777804804 | 1.11° C | 94% | 1007.1 hPa | 0 mm | - | 0 W/m² | - |
| 1777804204 | 1.11° C | 94% | 1007.1 hPa | 0 mm | - | 0 W/m² | - |
| 1777802404 | 1.67° C | 93% | 1006.4 hPa | 0 mm | - | 0 W/m² | - |
| 1777797604 | 3.89° C | 86% | 1005.4 hPa | 0 mm | - | 0 W/m² | - |
| 1777790405 | 4.44° C | 82% | 1004.4 hPa | 0 mm | - | 0 W/m² | - |
| 1777789204 | 5° C | 83% | 1004.4 hPa | 0 mm | - | 0 W/m² | - |
| 1777788004 | 5.56° C | 77% | 1004.4 hPa | 0 mm | - | 0 W/m² | - |
| 1777783803 | 5.56° C | 86% | 1004.1 hPa | 0 mm | - | 0 W/m² | - |
| 1777783204 | 5.56° C | 85% | 1004.1 hPa | 0 mm | - | 0 W/m² | - |
| 1777782604 | 5.56° C | 86% | 1004.1 hPa | 0 mm | - | 0 W/m² | - |
| 1777782004 | 6.11° C | 85% | 1004.1 hPa | 0 mm | - | 0 W/m² | - |
* Rain latest hour (hover to see other rain measurements)
** Current wind speed in m/s (hover to see current wind gust speed)